createdAt,value
2023-01-20T00:03:53.758Z,17.48
2023-01-20T00:08:53.693Z,18.8
2023-01-20T00:13:53.700Z,17.07
2023-01-20T00:18:53.683Z,16.85
2023-01-20T00:23:53.722Z,17.15
2023-01-20T00:28:53.720Z,16.6
2023-01-20T00:33:53.677Z,17.63
2023-01-20T00:38:53.695Z,18.47
2023-01-20T00:43:53.741Z,18.83
2023-01-20T00:48:53.702Z,17.82
2023-01-20T00:53:53.716Z,19.34
2023-01-20T00:58:53.696Z,18.68
2023-01-20T01:03:53.706Z,19.23
2023-01-20T01:08:53.701Z,20.68
2023-01-20T01:13:53.691Z,20.46
2023-01-20T01:18:53.709Z,20.91
2023-01-20T01:23:53.735Z,21.42
2023-01-20T01:28:53.716Z,20.69
2023-01-20T01:33:53.733Z,21.62
2023-01-20T01:38:57.489Z,21.85
2023-01-20T01:43:53.740Z,22.16
2023-01-20T01:48:53.708Z,22.9
2023-01-20T01:53:53.804Z,23.33
2023-01-20T01:58:53.720Z,22.96
2023-01-20T02:03:59.391Z,22.22
2023-01-20T02:08:59.364Z,23.18
2023-01-20T02:13:59.372Z,23.51
2023-01-20T02:18:59.365Z,23.71
2023-01-20T02:23:59.341Z,22.5
2023-01-20T02:28:59.371Z,23.38
2023-01-20T02:33:59.343Z,24.88
2023-01-20T02:38:59.375Z,24.85
2023-01-20T02:43:59.374Z,24.15
2023-01-20T02:48:59.351Z,24.88
2023-01-20T02:53:59.359Z,24.86
2023-01-20T02:58:59.377Z,23.6
2023-01-20T03:03:59.465Z,23.14
2023-01-20T03:08:59.354Z,21.47
2023-01-20T03:13:59.401Z,21.44
2023-01-20T03:18:59.358Z,22.43
2023-01-20T03:23:59.387Z,21.68
2023-01-20T03:28:59.421Z,22.17
2023-01-20T03:33:59.392Z,22.66
2023-01-20T03:38:59.416Z,22.76
2023-01-20T03:43:59.355Z,22.82
2023-01-20T03:48:59.384Z,23.62
2023-01-20T03:53:59.388Z,23.43
2023-01-20T03:58:59.373Z,24.32
2023-01-20T04:03:59.407Z,25.62
2023-01-20T04:08:59.442Z,25.13
2023-01-20T04:13:59.393Z,25.39
2023-01-20T04:18:59.365Z,25.27
2023-01-20T04:23:59.434Z,26.69
2023-01-20T04:28:59.379Z,27.72
2023-01-20T04:33:59.425Z,24.88
2023-01-20T04:38:59.382Z,31.95
2023-01-20T04:43:59.435Z,32.22
2023-01-20T04:48:59.390Z,34.32
2023-01-20T04:53:59.418Z,29.54
2023-01-20T04:58:59.393Z,26.61
2023-01-20T05:03:59.498Z,23.64
2023-01-20T05:08:59.420Z,22.94
2023-01-20T05:13:59.433Z,24.97
2023-01-20T05:18:59.385Z,24.74
2023-01-20T05:23:59.430Z,24.62
2023-01-20T05:28:59.410Z,23.01
2023-01-20T05:33:59.407Z,24.46
2023-01-20T05:38:59.401Z,26.08
2023-01-20T05:43:59.469Z,26.58
2023-01-20T05:48:59.413Z,25.82
2023-01-20T05:53:59.404Z,26.71
2023-01-20T05:58:59.419Z,27.1
2023-01-20T06:03:59.498Z,26.7
2023-01-20T06:08:59.403Z,25.6
2023-01-20T06:13:59.422Z,26.76
2023-01-20T06:18:59.444Z,25.21
2023-01-20T06:23:59.460Z,24.79
2023-01-20T06:28:59.449Z,28.16
2023-01-20T06:33:59.415Z,27.94
2023-01-20T06:38:59.427Z,27.14
2023-01-20T06:43:59.489Z,25.16
2023-01-20T06:48:59.451Z,27.81
2023-01-20T06:53:59.465Z,31.04
2023-01-20T06:58:59.463Z,29.15
2023-01-20T07:03:59.490Z,28.54
2023-01-20T07:08:59.434Z,27.34
2023-01-20T07:13:59.461Z,30.31
2023-01-20T07:18:59.439Z,30.42
2023-01-20T07:23:59.460Z,28.12
2023-01-20T07:28:59.460Z,27.24
2023-01-20T07:33:59.474Z,24.25
2023-01-20T07:38:59.451Z,25.04
2023-01-20T07:43:59.445Z,24.51
2023-01-20T07:48:59.475Z,24.21
2023-01-20T07:53:59.483Z,25.15
2023-01-20T07:58:59.480Z,23.96
2023-01-20T08:03:59.498Z,23.84
2023-01-20T08:08:59.461Z,23.91
2023-01-20T08:13:59.455Z,21.96
2023-01-20T08:18:59.490Z,21.5
2023-01-20T08:26:24.275Z,19.03
2023-01-20T08:31:24.419Z,20.64
2023-01-20T08:36:24.273Z,23.38
2023-01-20T08:41:24.289Z,24.7
2023-01-20T08:46:24.335Z,27.67
2023-01-20T08:51:24.308Z,26.26
2023-01-20T08:56:24.312Z,18.81
2023-01-20T09:01:24.344Z,14.79
2023-01-20T09:06:24.337Z,14.4
2023-01-20T09:11:24.312Z,14.41
2023-01-20T09:16:24.304Z,14.82
2023-01-20T09:21:24.340Z,15.84
2023-01-20T09:26:35.145Z,14.07
2023-01-20T09:31:24.359Z,16.47
2023-01-20T09:36:24.316Z,16.07
2023-01-20T09:41:24.323Z,16.1
2023-01-20T09:46:24.368Z,15.29
2023-01-20T09:51:24.311Z,13.32
2023-01-20T09:56:24.343Z,15.8
2023-01-20T10:01:24.381Z,16.27
2023-01-20T10:06:24.341Z,14.38
2023-01-20T10:11:24.365Z,13.79
2023-01-20T10:16:24.357Z,13.17
2023-01-20T10:21:24.365Z,14.04
2023-01-20T10:26:24.363Z,16.09
2023-01-20T10:31:24.474Z,14.74
2023-01-20T10:36:24.359Z,12.74
2023-01-20T10:41:24.357Z,9.38
2023-01-20T10:46:24.391Z,8.62
2023-01-20T10:51:24.359Z,8.36
2023-01-20T10:56:24.348Z,8.65
2023-01-20T11:01:24.353Z,9.29
2023-01-20T11:06:24.358Z,15.17
2023-01-20T11:11:24.357Z,20.4
2023-01-20T11:16:24.393Z,21.68
2023-01-20T11:21:24.356Z,11.41
2023-01-20T11:26:26.987Z,9.72
2023-01-20T11:31:24.393Z,8.84
2023-01-20T11:36:24.356Z,8.67
2023-01-20T11:41:24.357Z,9.08
2023-01-20T11:46:24.371Z,8.93
2023-01-20T11:51:24.396Z,8.15
2023-01-20T11:56:24.343Z,7.49
2023-01-20T12:01:24.383Z,8.34
2023-01-20T12:06:24.385Z,8.98
2023-01-20T12:11:24.397Z,8.79
2023-01-20T12:16:24.418Z,9.17
2023-01-20T12:21:24.403Z,8.04
2023-01-20T12:26:24.391Z,8.39
2023-01-20T12:31:24.506Z,8.71
2023-01-20T12:36:24.395Z,9.02
2023-01-20T12:41:24.380Z,9.38
2023-01-20T12:46:24.382Z,9.26
2023-01-20T12:51:24.375Z,10
2023-01-20T12:56:24.381Z,10.69
2023-01-20T13:01:24.468Z,9.74
2023-01-20T13:06:24.390Z,9.96
2023-01-20T13:11:24.376Z,10.58
2023-01-20T13:16:24.421Z,11.43
2023-01-20T13:21:24.416Z,12.84
2023-01-20T13:26:25.816Z,12.5
2023-01-20T13:31:24.661Z,13.57
2023-01-20T13:36:24.427Z,12.78
2023-01-20T13:41:24.402Z,13.65
2023-01-20T13:46:24.497Z,13.7
2023-01-20T13:51:24.452Z,11.79
2023-01-20T13:56:24.399Z,11.76
2023-01-20T14:01:24.511Z,11.71
2023-01-20T14:06:24.382Z,12.91
2023-01-20T14:11:24.451Z,13.35
2023-01-20T14:16:24.483Z,12.32
2023-01-20T14:21:24.432Z,13.13
2023-01-20T14:26:24.399Z,12.53
2023-01-20T14:31:24.547Z,12.99
2023-01-20T14:36:24.435Z,11.69
2023-01-20T14:41:24.447Z,12.45
2023-01-20T14:46:24.502Z,11.24
2023-01-20T14:51:24.438Z,10.43
2023-01-20T14:56:24.418Z,11.74
2023-01-20T15:01:24.498Z,12.07
2023-01-20T15:06:24.424Z,14.45
2023-01-20T15:11:24.452Z,14.48
2023-01-20T15:16:24.485Z,12.26
2023-01-20T15:21:24.428Z,12.42
2023-01-20T15:26:24.414Z,11.68
2023-01-20T15:31:24.575Z,14.44
2023-01-20T15:36:24.465Z,18.73
2023-01-20T15:41:24.440Z,12.22
2023-01-20T15:46:24.444Z,12.61
2023-01-20T15:51:24.430Z,12.65
2023-01-20T15:56:24.428Z,13.12
2023-01-20T16:01:24.431Z,12.02
2023-01-20T16:06:24.424Z,12.88
2023-01-20T16:11:24.467Z,12.22
2023-01-20T16:16:24.516Z,12.49
2023-01-20T16:21:24.442Z,13.31
2023-01-20T16:26:24.443Z,13.92
2023-01-20T16:31:24.531Z,16.41
2023-01-20T16:36:24.443Z,13.94
2023-01-20T16:41:24.472Z,14.18
2023-01-20T16:46:24.443Z,15.14
2023-01-20T16:51:24.443Z,14.57
2023-01-20T16:56:24.455Z,12.86
2023-01-20T17:01:24.521Z,13.69
2023-01-20T17:06:24.444Z,14.03
2023-01-20T17:11:24.458Z,13.54
2023-01-20T17:16:24.469Z,12.99
2023-01-20T17:21:24.451Z,15.9
2023-01-20T17:26:24.484Z,15.69
2023-01-20T17:31:24.503Z,15.45
2023-01-20T17:36:24.477Z,13.92
2023-01-20T17:41:24.472Z,10.88
2023-01-20T17:46:24.470Z,11.55
2023-01-20T17:51:24.469Z,12.85
2023-01-20T17:56:24.459Z,16.45
2023-01-20T18:01:24.566Z,19.02
2023-01-20T18:06:24.471Z,18.18
2023-01-20T18:11:24.515Z,18.02
2023-01-20T18:16:24.580Z,18.88
2023-01-20T18:21:24.488Z,16.13
2023-01-20T18:26:24.506Z,16.65
2023-01-20T18:31:24.615Z,14.36
2023-01-20T18:36:24.526Z,12.65
2023-01-20T18:41:24.485Z,12.57
2023-01-20T18:46:24.601Z,14.9
2023-01-20T18:51:24.483Z,12.85
2023-01-20T18:56:24.496Z,11.78
2023-01-20T19:01:24.572Z,10.85
2023-01-20T19:06:24.495Z,9.39
2023-01-20T19:11:24.499Z,11.32
2023-01-20T19:16:24.495Z,10.71
2023-01-20T19:21:24.497Z,13.68
2023-01-20T19:26:24.523Z,12.32
2023-01-20T19:31:24.693Z,11.75
2023-01-20T19:36:24.489Z,11.64
2023-01-20T19:41:24.530Z,11.42
2023-01-20T19:46:24.608Z,10.87
2023-01-20T19:51:24.510Z,10.7
2023-01-20T19:56:24.510Z,11.68
2023-01-20T20:01:24.619Z,12.48
2023-01-20T20:06:24.502Z,12.17
2023-01-20T20:11:24.513Z,11.13
2023-01-20T20:16:24.540Z,11.58
2023-01-20T20:21:24.515Z,12.06
2023-01-20T20:26:24.526Z,12.34
2023-01-20T20:31:24.624Z,9.52
2023-01-20T20:36:24.523Z,8.17
2023-01-20T20:41:24.527Z,8.18
2023-01-20T20:46:24.601Z,7.69
2023-01-20T20:51:24.517Z,5.84
2023-01-20T20:56:24.615Z,6.57
2023-01-20T21:01:24.520Z,7.03
2023-01-20T21:06:24.538Z,7.15
2023-01-20T21:11:24.536Z,6.69
2023-01-20T21:16:24.631Z,6.4
2023-01-20T21:20:13.331Z,6.48
2023-01-20T21:26:44.227Z,6.6
2023-01-20T21:31:44.230Z,6.57
2023-01-20T21:36:44.181Z,6.72
2023-01-20T21:41:44.196Z,6.41
2023-01-20T21:46:44.247Z,6.04
2023-01-20T22:02:33.979Z,6.05
2023-01-20T22:07:39.748Z,7.04
2023-01-20T22:09:00.690Z,7.28
2023-01-20T22:14:00.667Z,7.7
2023-01-20T22:19:00.680Z,8.68
2023-01-20T22:24:00.716Z,6.97
2023-01-20T22:29:00.673Z,6.56
2023-01-20T22:34:02.456Z,6.65
2023-01-20T22:39:00.682Z,6.36
2023-01-20T22:44:00.701Z,6.77
2023-01-20T22:49:00.691Z,6.83
2023-01-20T22:54:00.692Z,6.04
2023-01-20T22:59:00.701Z,6.05
2023-01-20T23:04:00.711Z,5
2023-01-20T23:09:00.699Z,5.02
2023-01-20T23:14:00.792Z,4.33
2023-01-20T23:19:00.726Z,3.96
2023-01-20T23:24:00.726Z,3.42
2023-01-20T23:29:00.726Z,3.22
2023-01-20T23:34:00.708Z,4.31
2023-01-20T23:39:00.710Z,4.33
2023-01-20T23:44:00.715Z,4.53
2023-01-20T23:49:00.725Z,3.76
2023-01-20T23:54:00.720Z,2.81
2023-01-20T23:59:00.723Z,3.95
